Time;durP1;ratioP1;P1;durP2;ratioP2;P2;SDS_P1;SDS_P2;PMS_P1;PMS_P2;Temp;Humidity;BMP_temperature;BMP_pressure;BME280_temperature;BME280_humidity;BME280_pressure;Samples;Min_cycle;Max_cycle;Signal;HPM_P1;HPM_P2
2022/08/28 00:02:06;;;;;;;;;;;;;;;28.45;42.92;96618.38;5075314;28;19908;-28
2022/08/28 00:04:32;;;;;;;;;;;;;;;28.43;42.98;96620.97;5075011;28;19915;-28
2022/08/28 00:06:58;;;;;;;;;;;;;;;28.46;42.86;96617.81;5074917;28;19998;-28
2022/08/28 00:09:23;;;;;;;;;;;;;;;28.45;42.69;96626.72;5074777;28;19966;-30
2022/08/28 00:11:49;;;;;;;;;;;;;;;28.45;42.89;96623.94;5075128;28;19935;-28
2022/08/28 00:14:14;;;;;;;;;;;;;;;28.48;42.86;96622.88;5075232;28;19909;-28
2022/08/28 00:16:40;;;;;;;;;;;;;;;28.49;42.61;96629.94;5074799;28;20281;-28
2022/08/28 00:19:05;;;;;;;;;;;;;;;28.48;42.82;96628.44;5074813;28;20289;-28
2022/08/28 00:21:32;;;;;;;;;;;;;;;28.47;42.82;96624.16;5074705;28;19912;-27
2022/08/28 00:23:58;;;;;;;;;;;;;;;28.46;43.02;96619.88;5074778;28;19915;-29
2022/08/28 00:29:07;;;;;;;;;;;;;;;28.45;42.68;96630.28;5074725;28;19915;-29
2022/08/28 00:31:33;;;;;;;;;;;;;;;28.44;42.83;96628.78;5074545;28;19912;-28
2022/08/28 00:34:01;;;;;;;;;;;;;;;28.43;42.91;96634.91;5074499;28;19908;-28
2022/08/28 00:36:27;;;;;;;;;;;;;;;28.38;42.77;96641.34;5074370;28;20381;-28
2022/08/28 00:38:53;;;;;;;;;;;;;;;28.36;43.11;96641.16;5074410;28;19920;-28
2022/08/28 00:41:19;;;;;;;;;;;;;;;28.41;42.86;96640.28;5074388;28;19909;-29
2022/08/28 00:43:45;;;;;;;;;;;;;;;28.40;42.87;96645.13;5074074;28;19921;-28
2022/08/28 00:46:13;;;;;;;;;;;;;;;28.40;42.90;96649.94;5074278;28;20007;-28
2022/08/28 00:48:38;;;;;;;;;;;;;;;28.38;42.67;96646.94;5073962;28;20254;-28
2022/08/28 00:53:49;;;;;;;;;;;;;;;28.34;42.88;96640.94;5074574;28;19916;-28
2022/08/28 00:56:15;;;;;;;;;;;;;;;28.40;42.84;96636.00;5074093;28;19912;-28
2022/08/28 00:58:41;;;;;;;;;;;;;;;28.41;42.70;96634.72;5073843;28;19988;-27
2022/08/28 01:01:07;;;;;;;;;;;;;;;28.40;42.80;96633.19;5074079;28;20263;-28
2022/08/28 01:03:32;;;;;;;;;;;;;;;28.35;42.57;96620.88;5073901;28;19915;-28
2022/08/28 01:05:58;;;;;;;;;;;;;;;28.38;42.81;96621.84;5074061;28;19977;-28
2022/08/28 01:08:24;;;;;;;;;;;;;;;28.42;42.70;96625.03;5073825;28;19916;-28
2022/08/28 01:10:52;;;;;;;;;;;;;;;28.40;42.65;96628.38;5074201;28;19909;-28
2022/08/28 01:13:18;;;;;;;;;;;;;;;28.37;42.83;96628.69;5073847;28;19915;-28
2022/08/28 01:15:44;;;;;;;;;;;;;;;28.36;42.82;96627.19;5073808;28;19908;-28
2022/08/28 01:18:12;;;;;;;;;;;;;;;28.39;42.64;96624.09;5073588;28;19966;-27
2022/08/28 01:20:41;;;;;;;;;;;;;;;28.36;42.90;96630.75;5073758;28;19915;-29
2022/08/28 01:23:21;;;;;;;;;;;;;;;28.37;42.64;96628.69;5073790;28;19909;-27
2022/08/28 01:25:46;;;;;;;;;;;;;;;28.37;42.81;96635.03;5073815;28;19908;-29
2022/08/28 01:28:13;;;;;;;;;;;;;;;28.34;42.68;96638.16;5073519;28;19908;-28
2022/08/28 01:30:43;;;;;;;;;;;;;;;28.30;43.09;96632.91;5073633;28;19954;-28
2022/08/28 01:33:08;;;;;;;;;;;;;;;28.32;42.93;96632.34;5073537;28;19915;-27
2022/08/28 01:35:36;;;;;;;;;;;;;;;28.30;42.86;96632.91;5073696;28;19908;-28
2022/08/28 01:38:02;;;;;;;;;;;;;;;28.30;42.86;96629.38;5073681;28;19919;-28
2022/08/28 01:40:29;;;;;;;;;;;;;;;28.32;42.79;96629.56;5073549;28;19908;-27
2022/08/28 01:42:55;;;;;;;;;;;;;;;28.33;42.88;96620.66;5073359;28;20238;-29
2022/08/28 01:45:21;;;;;;;;;;;;;;;28.34;42.66;96624.19;5073371;28;19908;-28
2022/08/28 01:47:47;;;;;;;;;;;;;;;28.34;42.68;96629.78;5073691;28;20319;-30
2022/08/28 01:50:14;;;;;;;;;;;;;;;28.34;42.54;96624.19;5073376;28;20053;-27
2022/08/28 01:52:40;;;;;;;;;;;;;;;28.35;42.52;96622.91;5073825;28;19908;-28
2022/08/28 01:55:07;;;;;;;;;;;;;;;28.31;42.93;96619.72;5073307;28;19916;-28
2022/08/28 01:57:33;;;;;;;;;;;;;;;28.28;42.96;96613.19;5073376;28;20297;-28
2022/08/28 01:59:58;;;;;;;;;;;;;;;28.26;43.00;96612.22;5073437;28;19920;-27
2022/08/28 02:02:24;;;;;;;;;;;;;;;28.30;42.80;96609.84;5077075;28;19908;-28
2022/08/28 02:04:49;;;;;;;;;;;;;;;28.31;42.82;96609.31;5077510;28;19908;-28
2022/08/28 02:07:15;;;;;;;;;;;;;;;28.30;42.98;96607.06;5077363;28;19918;-28
2022/08/28 02:09:41;;;;;;;;;;;;;;;28.30;42.79;96612.66;5077294;28;19908;-27
2022/08/28 02:12:06;;;;;;;;;;;;;;;28.30;42.86;96604.28;5077168;28;20384;-27
2022/08/28 02:14:32;;;;;;;;;;;;;;;28.31;42.70;96609.31;5059227;28;19909;-28
2022/08/28 02:16:57;;;;;;;;;;;;;;;28.34;42.72;96601.88;5077161;28;19996;-28
2022/08/28 02:19:23;;;;;;;;;;;;;;;28.35;42.52;96600.59;5077075;28;19944;-28
2022/08/28 02:21:48;;;;;;;;;;;;;;;28.33;42.89;96600.38;5077266;28;20377;-28
2022/08/28 02:24:15;;;;;;;;;;;;;;;28.34;42.77;96604.66;5076928;28;19908;-28
2022/08/28 02:26:41;;;;;;;;;;;;;;;28.33;42.67;96605.97;5076942;28;20281;-28
2022/08/28 02:29:07;;;;;;;;;;;;;;;28.31;42.59;96603.75;5076759;28;19915;-28
2022/08/28 02:31:33;;;;;;;;;;;;;;;28.30;42.77;96610.59;5076978;28;20327;-28
2022/08/28 02:33:58;;;;;;;;;;;;;;;28.31;42.72;96605.78;5076719;28;19915;-29
2022/08/28 02:36:24;;;;;;;;;;;;;;;28.32;42.97;96610.03;5076814;28;19915;-28
2022/08/28 02:38:51;;;;;;;;;;;;;;;28.33;42.68;96605.97;5076847;28;19935;-28
2022/08/28 02:41:16;;;;;;;;;;;;;;;28.28;43.05;96602.03;5076792;28;19915;-28
2022/08/28 02:43:41;;;;;;;;;;;;;;;28.24;42.97;96599.56;5076306;28;20100;-28
2022/08/28 02:46:07;;;;;;;;;;;;;;;28.30;42.94;96599.44;5076747;28;19985;-28
2022/08/28 02:48:33;;;;;;;;;;;;;;;28.28;43.00;96592.91;5076546;28;20447;-28
2022/08/28 02:51:00;;;;;;;;;;;;;;;28.28;42.87;96588.09;5076608;28;19944;-28
2022/08/28 02:53:27;;;;;;;;;;;;;;;28.29;42.94;96589.59;5076344;28;19908;-28
2022/08/28 02:55:52;;;;;;;;;;;;;;;28.31;42.96;96595.38;5076475;28;19908;-28
2022/08/28 02:58:18;;;;;;;;;;;;;;;28.28;43.10;96598.50;5076184;28;19913;-28
2022/08/28 03:00:44;;;;;;;;;;;;;;;28.27;42.91;96597.72;5076373;28;20270;-28
2022/08/28 03:03:09;;;;;;;;;;;;;;;28.24;43.24;96599.56;5076530;28;19909;-28
2022/08/28 03:05:34;;;;;;;;;;;;;;;28.25;43.15;96600.31;5076297;28;19921;-28
2022/08/28 03:08:00;;;;;;;;;;;;;;;28.25;43.10;96591.94;5076101;28;20003;-28
2022/08/28 03:10:25;;;;;;;;;;;;;;;28.24;42.92;96588.41;5076179;28;20016;-29
2022/08/28 03:12:51;;;;;;;;;;;;;;;28.26;42.84;96601.81;5075207;28;19908;-28
2022/08/28 03:15:17;;;;;;;;;;;;;;;28.27;42.95;96605.34;5076227;28;19908;-28
2022/08/28 03:17:42;;;;;;;;;;;;;;;28.24;42.75;96605.13;5076015;28;19915;-28
2022/08/28 03:20:09;;;;;;;;;;;;;;;28.23;42.76;96591.72;5075947;28;19952;-28
2022/08/28 03:25:18;;;;;;;;;;;;;;;28.24;42.92;96593.22;5076299;28;19915;-30
2022/08/28 03:27:43;;;;;;;;;;;;;;;28.20;43.21;96587.97;5075756;28;19909;-28
2022/08/28 03:30:09;;;;;;;;;;;;;;;28.17;43.22;96583.47;5075742;28;19915;-28
2022/08/28 03:32:35;;;;;;;;;;;;;;;28.19;42.97;96586.47;5075855;28;20007;-29
2022/08/28 03:35:00;;;;;;;;;;;;;;;28.22;42.81;96582.63;5075610;28;20338;-28
2022/08/28 03:37:25;;;;;;;;;;;;;;;28.21;42.70;96583.16;5075931;28;19908;-29
2022/08/28 03:39:51;;;;;;;;;;;;;;;28.22;42.73;96585.41;5075455;28;19916;-29
2022/08/28 03:42:17;;;;;;;;;;;;;;;28.22;43.00;96571.47;5075453;28;19908;-28
2022/08/28 03:44:42;;;;;;;;;;;;;;;28.20;42.95;96576.81;5075545;28;19908;-27
2022/08/28 03:47:07;;;;;;;;;;;;;;;28.20;42.78;96574.03;5075426;28;19916;-28
2022/08/28 03:49:33;;;;;;;;;;;;;;;28.21;43.12;96575.53;5075536;28;19908;-28
2022/08/28 03:51:58;;;;;;;;;;;;;;;28.17;43.11;96572.31;5075354;28;20457;-27
2022/08/28 03:54:24;;;;;;;;;;;;;;;28.18;43.18;96576.63;5075320;28;19954;-27
2022/08/28 03:56:50;;;;;;;;;;;;;;;28.12;43.24;96570.41;5075230;28;19912;-28
2022/08/28 03:59:17;;;;;;;;;;;;;;;28.15;43.16;96572.13;5075200;28;19912;-28
2022/08/28 04:01:42;;;;;;;;;;;;;;;28.14;42.86;96584.56;5075444;28;19908;-28
2022/08/28 04:04:07;;;;;;;;;;;;;;;28.13;42.94;96577.47;5075227;28;20387;-28
2022/08/28 04:06:33;;;;;;;;;;;;;;;28.10;43.02;96572.97;5075111;28;19962;-29
2022/08/28 04:08:58;;;;;;;;;;;;;;;28.14;42.79;96569.84;5075120;28;19978;-28
2022/08/28 04:11:23;;;;;;;;;;;;;;;28.13;42.75;96569.09;5074947;28;19914;-28
2022/08/28 04:13:49;;;;;;;;;;;;;;;28.14;42.71;96567.06;5074986;28;19953;-28
2022/08/28 04:16:17;;;;;;;;;;;;;;;28.15;43.07;96571.38;5074912;28;19912;-28
2022/08/28 04:18:44;;;;;;;;;;;;;;;28.16;42.79;96576.41;5074605;28;19912;-28
2022/08/28 04:21:10;;;;;;;;;;;;;;;28.13;42.81;96566.31;5074817;28;19908;-28
2022/08/28 04:23:37;;;;;;;;;;;;;;;28.13;42.81;96573.94;5074415;28;20379;-30
2022/08/28 04:26:10;;;;;;;;;;;;;;;28.13;42.82;96577.47;5074157;28;19908;-29
2022/08/28 04:28:35;;;;;;;;;;;;;;;28.13;42.92;96585.09;5074706;28;20019;-29
2022/08/28 04:31:01;;;;;;;;;;;;;;;28.10;42.77;96577.78;5056544;28;19958;-28
2022/08/28 04:33:27;;;;;;;;;;;;;;;28.13;42.92;96579.50;5074665;28;19916;-28
2022/08/28 04:35:55;;;;;;;;;;;;;;;28.12;42.73;96581.56;5074620;28;19909;-29
2022/08/28 04:38:21;;;;;;;;;;;;;;;28.15;42.84;96576.94;5074317;28;19912;-28
2022/08/28 04:40:46;;;;;;;;;;;;;;;28.13;42.78;96583.06;5074652;28;20372;-27
2022/08/28 04:43:11;;;;;;;;;;;;;;;28.16;42.72;96584.75;5074088;28;19916;-27
2022/08/28 04:45:38;;;;;;;;;;;;;;;28.17;42.69;96589.06;5074180;28;19908;-28
2022/08/28 04:48:04;;;;;;;;;;;;;;;28.11;42.88;96585.63;5074228;28;19908;-28
2022/08/28 04:50:29;;;;;;;;;;;;;;;28.14;42.54;96601.28;5074369;28;19954;-28
2022/08/28 04:52:54;;;;;;;;;;;;;;;28.11;42.69;96607.94;5074208;28;19916;-28
2022/08/28 04:55:20;;;;;;;;;;;;;;;28.14;42.96;96609.66;5074017;28;19908;-28
2022/08/28 04:57:45;;;;;;;;;;;;;;;28.14;43.01;96620.81;5074030;28;19908;-28
2022/08/28 05:00:11;;;;;;;;;;;;;;;28.13;43.04;96622.09;5074061;28;19908;-28
2022/08/28 05:02:37;;;;;;;;;;;;;;;28.10;42.93;96617.59;5073811;28;19915;-28
2022/08/28 05:05:03;;;;;;;;;;;;;;;28.12;42.73;96620.59;5074092;28;20335;-27
2022/08/28 05:07:28;;;;;;;;;;;;;;;28.12;42.82;96631.75;5073816;28;19961;-27
2022/08/28 05:09:54;;;;;;;;;;;;;;;28.09;42.95;96627.22;5074134;28;20298;-27
2022/08/28 05:12:19;;;;;;;;;;;;;;;28.06;42.99;96628.34;5074015;28;20007;-27
2022/08/28 05:14:44;;;;;;;;;;;;;;;28.07;43.01;96629.81;5073774;28;19965;-28
2022/08/28 05:17:15;;;;;;;;;;;;;;;28.10;43.09;96639.13;5074175;28;20442;-27
2022/08/28 05:19:41;;;;;;;;;;;;;;;28.10;42.88;96642.69;5087042;28;19912;-28
2022/08/28 05:22:08;;;;;;;;;;;;;;;28.11;42.98;96649.75;5091852;28;19918;-27
2022/08/28 05:24:34;;;;;;;;;;;;;;;28.12;42.97;96647.72;5091787;28;19935;-28
2022/08/28 05:26:59;;;;;;;;;;;;;;;28.11;42.91;96646.22;5091749;28;20403;-28
2022/08/28 05:29:25;;;;;;;;;;;;;;;28.10;42.91;96647.50;5091815;28;19916;-28
2022/08/28 05:31:50;;;;;;;;;;;;;;;28.10;43.16;96655.88;5108066;28;19911;-28
2022/08/28 05:34:16;;;;;;;;;;;;;;;28.08;42.82;96659.19;5109931;28;20311;-28
2022/08/28 05:36:41;;;;;;;;;;;;;;;28.04;43.22;96669.94;5111731;28;19912;-28
2022/08/28 05:39:08;;;;;;;;;;;;;;;28.07;42.85;96663.25;5111880;28;19916;-29
2022/08/28 05:41:34;;;;;;;;;;;;;;;28.09;42.90;96666.28;5111852;28;19943;-27
2022/08/28 05:44:04;;;;;;;;;;;;;;;28.11;43.17;96672.06;5111558;28;19962;-27
2022/08/28 05:46:30;;;;;;;;;;;;;;;28.11;42.93;96663.69;5112008;28;20299;-27
2022/08/28 05:48:56;;;;;;;;;;;;;;;28.10;42.86;96664.22;5111840;28;20013;-28
2022/08/28 05:51:23;;;;;;;;;;;;;;;28.12;43.17;96670.03;5111840;28;19916;-27
2022/08/28 05:53:48;;;;;;;;;;;;;;;28.11;42.78;96668.53;5111674;28;19914;-27
2022/08/28 05:56:34;;;;;;;;;;;;;;;28.11;43.15;96669.28;5111890;28;19911;-28
2022/08/28 05:59:00;;;;;;;;;;;;;;;28.12;43.07;96670.78;5111088;28;19922;-27
2022/08/28 06:01:27;;;;;;;;;;;;;;;28.12;43.29;96675.59;5111553;28;19939;-28
2022/08/28 06:03:56;;;;;;;;;;;;;;;28.12;42.87;96678.38;5111682;28;20300;-27
2022/08/28 06:06:23;;;;;;;;;;;;;;;28.14;42.93;96679.34;5111429;28;19907;-28
2022/08/28 06:08:50;;;;;;;;;;;;;;;28.15;42.72;96674.53;5071079;28;19919;-27
2022/08/28 06:11:17;;;;;;;;;;;;;;;28.10;43.30;96673.34;5071015;28;19912;-27
2022/08/28 06:13:43;;;;;;;;;;;;;;;28.08;43.39;96675.16;5090049;28;19919;-28
2022/08/28 06:16:08;;;;;;;;;;;;;;;28.11;43.27;96674.84;5091184;28;19918;-26
2022/08/28 06:18:33;;;;;;;;;;;;;;;28.11;42.96;96672.06;5090935;28;19922;-28
2022/08/28 06:21:01;;;;;;;;;;;;;;;28.09;43.18;96671.09;5091099;28;20358;-28
2022/08/28 06:23:27;;;;;;;;;;;;;;;28.12;43.34;96683.97;5091187;28;19914;-28
2022/08/28 06:25:52;;;;;;;;;;;;;;;28.11;43.35;96677.63;5091068;28;19916;-28
2022/08/28 06:28:19;;;;;;;;;;;;;;;28.11;43.23;96680.44;5090999;28;20293;-28
2022/08/28 06:30:45;;;;;;;;;;;;;;;28.09;43.12;96679.47;5090867;28;20344;-28
2022/08/28 06:33:12;;;;;;;;;;;;;;;28.11;43.05;96674.84;5089241;28;20011;-28
2022/08/28 06:35:44;;;;;;;;;;;;;;;28.12;43.29;96679.13;5091427;28;19912;-27
2022/08/28 06:38:11;;;;;;;;;;;;;;;28.11;43.10;96677.63;5072879;28;19922;-28
2022/08/28 06:40:44;;;;;;;;;;;;;;;28.11;43.13;96680.44;5090889;28;19961;-28
2022/08/28 06:43:10;;;;;;;;;;;;;;;28.08;43.40;96678.72;5087880;28;19955;-28
2022/08/28 06:45:39;;;;;;;;;;;;;;;28.06;43.58;96667.38;5091086;28;19958;-30
2022/08/28 06:48:05;;;;;;;;;;;;;;;28.05;43.42;96665.88;5092317;28;19951;-27
2022/08/28 06:50:30;;;;;;;;;;;;;;;28.08;43.51;96656.41;5094695;28;20009;-28
2022/08/28 06:52:56;;;;;;;;;;;;;;;28.06;43.43;96670.16;5096672;28;19977;-28
2022/08/28 06:55:21;;;;;;;;;;;;;;;28.07;43.71;96663.25;5096817;28;19908;-27
2022/08/28 06:57:47;;;;;;;;;;;;;;;28.05;43.55;96665.09;5099723;28;19908;-29
2022/08/28 07:00:12;;;;;;;;;;;;;;;28.06;43.57;96666.63;5099189;28;20366;-28
2022/08/28 07:02:38;;;;;;;;;;;;;;;28.05;43.88;96662.31;5077751;28;19911;-29
2022/08/28 07:05:03;;;;;;;;;;;;;;;28.06;43.59;96670.16;5114887;28;19916;-28
2022/08/28 07:07:29;;;;;;;;;;;;;;;28.08;43.71;96675.91;5114798;28;19911;-28
2022/08/28 07:09:54;;;;;;;;;;;;;;;28.07;43.69;96673.66;5114401;28;19915;-28
2022/08/28 07:12:19;;;;;;;;;;;;;;;28.08;43.77;96681.50;5114512;28;20005;-28
2022/08/28 07:14:44;;;;;;;;;;;;;;;28.07;43.83;96677.19;5113338;28;19918;-28
2022/08/28 07:17:10;;;;;;;;;;;;;;;28.08;43.71;96681.50;5094202;28;20293;-29
2022/08/28 07:19:36;;;;;;;;;;;;;;;28.11;43.89;96680.44;5094062;28;19977;-28
2022/08/28 07:22:01;;;;;;;;;;;;;;;28.11;43.75;96674.84;5093852;28;19912;-28
2022/08/28 07:24:28;;;;;;;;;;;;;;;28.08;43.86;96681.50;5094083;28;19908;-29
2022/08/28 07:26:54;;;;;;;;;;;;;;;28.08;43.84;96686.31;5093487;28;19908;-27
2022/08/28 07:29:20;;;;;;;;;;;;;;;28.10;44.13;96695.66;5077276;28;20053;-28
2022/08/28 07:31:47;;;;;;;;;;;;;;;28.08;44.21;96701.00;5075321;28;19969;-27
2022/08/28 07:34:14;;;;;;;;;;;;;;;28.05;43.85;96693.75;5090477;28;19912;-28
2022/08/28 07:36:39;;;;;;;;;;;;;;;28.07;44.08;96695.97;5096035;28;19990;-27
2022/08/28 07:39:05;;;;;;;;;;;;;;;28.09;44.15;96696.19;5096000;28;20491;-28
2022/08/28 07:41:31;;;;;;;;;;;;;;;28.02;44.13;96705.97;5095696;28;20377;-30
2022/08/28 07:46:40;;;;;;;;;;;;;;;28.04;44.35;96702.63;5095769;28;19915;-30
2022/08/28 07:49:07;;;;;;;;;;;;;;;28.02;44.35;96703.19;5095755;28;19908;-30
2022/08/28 07:51:33;;;;;;;;;;;;;;;28.08;44.23;96703.06;5095682;28;20357;-31
2022/08/28 07:53:59;;;;;;;;;;;;;;;28.07;44.40;96699.50;5095295;28;19915;-28
2022/08/28 07:56:28;;;;;;;;;;;;;;;28.06;44.37;96700.81;5095570;28;19908;-27
2022/08/28 07:58:55;;;;;;;;;;;;;;;27.82;45.59;96701.75;5095263;28;19912;-28
2022/08/28 08:01:21;;;;;;;;;;;;;;;27.95;45.38;96701.00;5095477;28;19950;-28
2022/08/28 08:03:46;;;;;;;;;;;;;;;28.01;44.80;96696.09;5095271;28;19908;-30
2022/08/28 08:06:12;;;;;;;;;;;;;;;28.06;45.17;96692.47;5095263;28;20406;-28
2022/08/28 08:08:38;;;;;;;;;;;;;;;28.04;45.12;96692.25;5095129;28;19961;-28
2022/08/28 08:11:05;;;;;;;;;;;;;;;28.07;45.10;96701.53;5095203;28;19909;-27
2022/08/28 08:13:32;;;;;;;;;;;;;;;28.03;45.35;96699.09;5095158;28;19919;-29
2022/08/28 08:16:09;;;;;;;;;;;;;;;28.00;45.58;96697.38;5095323;28;19912;-29
2022/08/28 08:18:35;;;;;;;;;;;;;;;28.00;45.84;96691.81;5095106;28;19990;-27
2022/08/28 08:21:03;;;;;;;;;;;;;;;28.07;45.36;96695.97;5095014;28;19908;-28
2022/08/28 08:23:28;;;;;;;;;;;;;;;28.03;45.64;96687.94;5094962;28;19912;-27
2022/08/28 08:25:54;;;;;;;;;;;;;;;28.05;45.32;96699.31;5094871;28;19952;-28
2022/08/28 08:28:20;;;;;;;;;;;;;;;28.07;45.23;96705.09;5094825;28;19976;-28
2022/08/28 08:30:45;;;;;;;;;;;;;;;28.08;44.95;96701.00;5094821;28;20408;-27
2022/08/28 08:33:11;;;;;;;;;;;;;;;28.09;45.29;96699.72;5094626;28;19907;-27
2022/08/28 08:35:36;;;;;;;;;;;;;;;28.05;45.64;96713.25;5094731;28;19908;-28
2022/08/28 08:38:02;;;;;;;;;;;;;;;27.99;45.30;96717.44;5094453;28;19912;-28
2022/08/28 08:40:27;;;;;;;;;;;;;;;27.84;46.33;96709.59;5095148;28;20261;-28
2022/08/28 08:42:55;;;;;;;;;;;;;;;28.01;45.83;96712.81;5094438;28;19919;-28
2022/08/28 08:45:25;;;;;;;;;;;;;;;28.05;45.43;96709.72;5094816;28;19973;-27
2022/08/28 08:47:51;;;;;;;;;;;;;;;28.06;45.54;96717.56;5094555;28;20312;-28
2022/08/28 08:50:19;;;;;;;;;;;;;;;28.04;45.46;96716.56;5094239;28;19908;-28
2022/08/28 08:52:50;;;;;;;;;;;;;;;28.06;45.54;96727.94;5094390;28;19908;-28
2022/08/28 08:55:26;;;;;;;;;;;;;;;28.05;45.50;96715.28;5094415;28;19912;-28
2022/08/28 08:57:58;;;;;;;;;;;;;;;28.07;45.28;96719.03;5094360;28;20374;-27
2022/08/28 09:00:24;;;;;;;;;;;;;;;27.91;46.11;96720.13;5092321;28;19915;-27
2022/08/28 09:02:55;;;;;;;;;;;;;;;27.96;45.84;96713.66;5092215;28;19912;-28
2022/08/28 09:05:24;;;;;;;;;;;;;;;27.95;45.88;96705.84;5091993;28;19916;-28
2022/08/28 09:07:59;;;;;;;;;;;;;;;27.97;46.67;96711.63;5092169;28;19931;-28
2022/08/28 09:10:30;;;;;;;;;;;;;;;27.87;46.54;96709.28;5089431;28;19963;-28
2022/08/28 09:13:01;;;;;;;;;;;;;;;27.98;45.98;96708.31;5092058;28;19916;-28
2022/08/28 09:15:31;;;;;;;;;;;;;;;27.86;46.49;96713.34;5092041;28;19908;-28
2022/08/28 09:18:06;;;;;;;;;;;;;;;27.96;46.05;96713.66;5091764;28;20396;-28
2022/08/28 09:20:32;;;;;;;;;;;;;;;27.91;46.64;96722.91;5092079;28;19922;-29
2022/08/28 09:22:57;;;;;;;;;;;;;;;27.94;46.22;96721.84;5091653;28;19912;-27
2022/08/28 09:25:42;;;;;;;;;;;;;;;28.02;45.90;96731.06;5073682;28;19911;-28
2022/08/28 09:28:08;;;;;;;;;;;;;;;28.01;45.89;96723.97;5091689;28;20464;-28
2022/08/28 09:30:40;;;;;;;;;;;;;;;28.07;45.79;96721.06;5091826;28;20041;-29
2022/08/28 09:33:06;;;;;;;;;;;;;;;28.06;45.90;96723.13;5091833;28;20349;-28
2022/08/28 09:35:33;;;;;;;;;;;;;;;27.84;46.74;96724.28;5091786;28;19923;-28
2022/08/28 09:38:18;;;;;;;;;;;;;;;27.85;46.51;96722.25;5091901;28;19919;-28
2022/08/28 09:43:30;;;;;;;;;;;;;;;27.96;45.74;96716.47;5091766;28;19990;-28
2022/08/28 09:46:14;;;;;;;;;;;;;;;27.79;46.50;96713.25;5091883;28;19912;-28
2022/08/28 09:48:42;;;;;;;;;;;;;;;27.98;45.78;96715.94;5091545;28;19916;-29
2022/08/28 09:51:09;;;;;;;;;;;;;;;27.90;46.16;96710.25;5091962;28;19912;-28
2022/08/28 09:53:36;;;;;;;;;;;;;;;28.00;45.92;96708.53;5091182;28;19919;-27
2022/08/28 09:56:09;;;;;;;;;;;;;;;28.04;45.55;96711.75;5075473;28;20022;-29
2022/08/28 09:58:38;;;;;;;;;;;;;;;28.13;45.49;96711.31;5082356;28;20414;-27
2022/08/28 10:01:29;;;;;;;;;;;;;;;28.11;45.14;96713.88;5080906;28;20319;-28
2022/08/28 10:04:01;;;;;;;;;;;;;;;28.07;45.47;96710.66;5067578;28;19919;-28
2022/08/28 10:06:28;;;;;;;;;;;;;;;28.06;45.13;96700.81;5091633;28;20599;-27
2022/08/28 10:09:00;;;;;;;;;;;;;;;27.96;45.09;96696.94;5091692;28;20389;-28
2022/08/28 10:11:31;;;;;;;;;;;;;;;27.98;44.86;96694.38;5089933;28;19915;-27
2022/08/28 10:14:22;;;;;;;;;;;;;;;27.96;45.13;96707.34;5091751;28;19919;-27
2022/08/28 10:16:56;;;;;;;;;;;;;;;27.93;45.04;96698.03;5091567;28;19912;-28
2022/08/28 10:19:33;;;;;;;;;;;;;;;28.08;44.52;96703.81;5091541;28;19920;-28
2022/08/28 10:22:01;;;;;;;;;;;;;;;28.08;44.49;96714.19;5073667;28;20006;-28
2022/08/28 10:24:35;;;;;;;;;;;;;;;28.11;44.62;96699.94;5074588;28;19923;-28
2022/08/28 10:27:04;;;;;;;;;;;;;;;28.16;44.62;96701.88;5075140;28;19908;-29
2022/08/28 10:29:46;;;;;;;;;;;;;;;28.16;44.24;96698.34;5075159;28;19912;-28
2022/08/28 10:32:40;;;;;;;;;;;;;;;27.81;44.99;96699.53;5074893;28;19912;-28
2022/08/28 10:35:14;;;;;;;;;;;;;;;27.94;44.52;96696.00;5074629;28;19912;-27
2022/08/28 10:37:48;;;;;;;;;;;;;;;28.03;44.47;96698.34;5075114;28;19908;-27
2022/08/28 10:40:20;;;;;;;;;;;;;;;28.06;44.50;96695.25;5074937;28;19912;-28
2022/08/28 10:42:48;;;;;;;;;;;;;;;28.07;44.33;96685.56;5093882;28;20373;-27
2022/08/28 10:45:15;;;;;;;;;;;;;;;28.05;44.15;96687.41;5099656;28;19908;-28
2022/08/28 10:47:48;;;;;;;;;;;;;;;28.04;44.59;96686.66;5097001;28;19912;-28
2022/08/28 10:50:16;;;;;;;;;;;;;;;28.00;44.40;96680.66;5115223;28;19998;-28
2022/08/28 10:52:45;;;;;;;;;;;;;;;27.93;44.74;96681.31;5115241;28;19918;-27
2022/08/28 10:55:15;;;;;;;;;;;;;;;27.82;44.70;96682.25;5115285;28;19907;-28
2022/08/28 10:57:47;;;;;;;;;;;;;;;27.78;44.95;96678.31;5115375;28;19979;-28
2022/08/28 11:00:16;;;;;;;;;;;;;;;27.96;44.44;96674.66;5109543;28;19918;-28
2022/08/28 11:02:47;;;;;;;;;;;;;;;27.98;44.79;96680.44;5094783;28;19946;-28
2022/08/28 11:05:13;;;;;;;;;;;;;;;28.02;44.38;96689.25;5094682;28;19908;-27
2022/08/28 11:07:45;;;;;;;;;;;;;;;27.96;44.59;96691.38;5094571;28;19912;-27
2022/08/28 11:10:16;;;;;;;;;;;;;;;27.87;44.27;96681.41;5074466;28;19919;-27
2022/08/28 11:12:42;;;;;;;;;;;;;;;27.66;44.00;96674.97;5094314;28;19932;-28
2022/08/28 11:15:25;;;;;;;;;;;;;;;27.80;43.95;96668.13;5094375;28;19908;-28
2022/08/28 11:17:51;;;;;;;;;;;;;;;27.94;43.84;96668.88;5094391;28;19908;-28
2022/08/28 11:20:21;;;;;;;;;;;;;;;27.98;43.74;96688.03;5094171;28;20399;-28
2022/08/28 11:23:05;;;;;;;;;;;;;;;27.54;44.43;96693.91;5094088;28;20851;-28
2022/08/28 11:25:42;;;;;;;;;;;;;;;27.82;44.21;96703.81;5094255;28;19974;-31
2022/08/28 11:28:16;;;;;;;;;;;;;;;27.87;44.18;96709.28;5094253;28;19908;-29
2022/08/28 11:30:44;;;;;;;;;;;;;;;27.79;44.64;96721.63;5094016;28;19907;-28
2022/08/28 11:33:28;;;;;;;;;;;;;;;28.00;44.25;96713.34;5093766;28;19943;-28
2022/08/28 11:35:53;;;;;;;;;;;;;;;27.98;44.09;96719.47;5093978;28;19912;-28
2022/08/28 11:38:39;;;;;;;;;;;;;;;28.01;44.49;96718.41;5112384;28;19916;-27
2022/08/28 11:41:19;;;;;;;;;;;;;;;28.00;44.46;96719.69;5099919;28;19957;-28
2022/08/28 11:43:46;;;;;;;;;;;;;;;28.05;44.04;96715.28;5093873;28;19973;-29
2022/08/28 11:46:14;;;;;;;;;;;;;;;28.03;44.60;96706.72;5094000;28;20296;-28
2022/08/28 11:48:50;;;;;;;;;;;;;;;28.03;44.49;96701.88;5093391;28;19955;-27
2022/08/28 11:51:16;;;;;;;;;;;;;;;28.02;44.27;96708.75;5093804;28;19916;-28
2022/08/28 11:53:58;;;;;;;;;;;;;;;27.94;44.99;96707.16;5075448;28;19961;-28
2022/08/28 11:56:50;;;;;;;;;;;;;;;27.93;45.07;96697.28;5093723;28;19908;-27
2022/08/28 11:59:15;;;;;;;;;;;;;;;28.01;44.87;96693.31;5061858;28;19916;-29
2022/08/28 12:01:41;;;;;;;;;;;;;;;27.93;44.97;96692.47;5093738;28;19912;-28
2022/08/28 12:04:08;;;;;;;;;;;;;;;28.03;44.78;96706.72;5093720;28;19912;-28
2022/08/28 12:07:06;;;;;;;;;;;;;;;28.02;44.95;96702.44;5093251;28;20024;-28
2022/08/28 12:09:34;;;;;;;;;;;;;;;28.00;44.99;96697.38;5046294;28;19951;-27
2022/08/28 12:12:02;;;;;;;;;;;;;;;28.00;44.96;96696.63;5093162;28;20002;-28
2022/08/28 12:14:27;;;;;;;;;;;;;;;28.04;45.16;96702.63;5093147;28;19908;-28
2022/08/28 12:17:02;;;;;;;;;;;;;;;28.08;45.06;96698.22;5076367;28;20340;-29
2022/08/28 12:19:27;;;;;;;;;;;;;;;27.95;45.55;96706.59;5060674;28;19924;-29
2022/08/28 12:21:54;;;;;;;;;;;;;;;28.00;44.94;96705.75;5060830;28;20373;-27
2022/08/28 12:24:20;;;;;;;;;;;;;;;27.91;45.43;96699.84;5059785;28;19968;-27
2022/08/28 12:26:48;;;;;;;;;;;;;;;27.83;46.10;96696.94;5060038;28;19925;-28
2022/08/28 12:29:28;;;;;;;;;;;;;;;27.90;45.60;96682.38;5060186;28;19997;-28
2022/08/28 12:32:13;;;;;;;;;;;;;;;27.99;45.63;96667.25;5061244;28;19923;-28
2022/08/28 12:34:44;;;;;;;;;;;;;;;27.87;46.01;96666.72;5060410;28;19919;-28
2022/08/28 12:37:26;;;;;;;;;;;;;;;27.99;45.25;96672.81;5053264;28;19916;-27
2022/08/28 12:39:53;;;;;;;;;;;;;;;27.93;45.55;96675.75;5052517;28;20345;-27
2022/08/28 12:42:19;;;;;;;;;;;;;;;27.85;45.89;96692.34;5051426;28;20652;-28
2022/08/28 12:44:45;;;;;;;;;;;;;;;27.95;45.72;96689.88;5050951;28;19920;-28
2022/08/28 12:47:13;;;;;;;;;;;;;;;27.93;45.62;96689.69;5050493;28;20039;-29
2022/08/28 12:49:38;;;;;;;;;;;;;;;27.98;45.29;96694.38;5051506;28;19916;-28
2022/08/28 12:52:14;;;;;;;;;;;;;;;28.00;45.25;96691.81;5051418;28;19928;-28
2022/08/28 12:54:42;;;;;;;;;;;;;;;27.90;46.03;96701.88;5051116;28;20429;-28
2022/08/28 12:57:12;;;;;;;;;;;;;;;27.95;45.88;96701.00;5050755;28;19923;-28
2022/08/28 12:59:45;;;;;;;;;;;;;;;28.02;45.66;96705.22;5050537;28;20340;-27
2022/08/28 13:02:11;;;;;;;;;;;;;;;28.03;45.87;96696.31;5051387;28;19952;-28
2022/08/28 13:04:38;;;;;;;;;;;;;;;28.03;45.85;96695.56;5050848;28;20107;-28
2022/08/28 13:07:09;;;;;;;;;;;;;;;27.97;45.70;96700.47;5051086;28;20374;-28